createdAt,value
2023-02-23T00:00:22.949Z,12
2023-02-23T00:06:42.987Z,12
2023-02-23T00:13:05.908Z,9.6
2023-02-23T00:19:25.973Z,9.6
2023-02-23T00:25:48.895Z,16
2023-02-23T00:32:09.125Z,16
2023-02-23T00:38:34.656Z,13.5
2023-02-23T00:44:54.937Z,13.5
2023-02-23T00:51:18.160Z,15.3
2023-02-23T00:57:37.966Z,15.3
2023-02-23T01:04:00.959Z,13.6
2023-02-23T01:10:20.980Z,13.6
2023-02-23T01:16:43.967Z,14.4
2023-02-23T01:23:04.020Z,14.4
2023-02-23T01:29:26.942Z,11.3
2023-02-23T01:35:46.986Z,11.3
2023-02-23T01:42:09.905Z,12
2023-02-23T01:48:31.789Z,12
2023-02-23T01:54:53.080Z,8.6
2023-02-23T02:01:12.982Z,8.6
2023-02-23T02:07:35.956Z,20.6
2023-02-23T02:13:55.996Z,20.6
2023-02-23T02:20:18.900Z,16.7
2023-02-23T02:26:39.002Z,16.7
2023-02-23T02:33:01.933Z,26
2023-02-23T02:39:22.066Z,26
2023-02-23T02:45:44.917Z,17.3
2023-02-23T02:52:05.077Z,17.3
2023-02-23T02:58:27.929Z,16.6
2023-02-23T03:04:47.984Z,16.6
2023-02-23T03:11:10.933Z,19.9
2023-02-23T03:17:30.970Z,19.9
2023-02-23T03:23:53.969Z,9.4
2023-02-23T03:30:14.111Z,9.4
2023-02-23T03:36:36.937Z,13.8
2023-02-23T03:42:57.003Z,13.8
2023-02-23T03:49:19.955Z,11.5
2023-02-23T03:55:39.989Z,11.5
2023-02-23T04:02:02.948Z,19.1
2023-02-23T04:08:22.948Z,19.1
2023-02-23T04:14:45.925Z,21.8
2023-02-23T04:21:05.993Z,21.8
2023-02-23T04:27:28.931Z,10.6
2023-02-23T04:43:18.788Z,21.2
2023-02-23T04:49:38.926Z,21.2
2023-02-23T04:56:01.936Z,47.3
2023-02-23T05:02:22.203Z,47.3
2023-02-23T05:08:44.941Z,47.3
2023-02-23T05:15:04.945Z,47.3
2023-02-23T05:21:27.959Z,53.3
2023-02-23T05:27:47.983Z,53.3
2023-02-23T05:34:10.948Z,51.7
2023-02-23T05:40:31.086Z,51.7
2023-02-23T05:46:54.108Z,31.8
2023-02-23T05:53:13.905Z,31.8
2023-02-23T05:59:37.012Z,63.4
2023-02-23T06:05:57.025Z,63.4
2023-02-23T06:12:19.942Z,65.7
2023-02-23T06:18:40.060Z,65.7
2023-02-23T06:25:02.929Z,44.7
2023-02-23T06:31:23.004Z,44.7
2023-02-23T06:37:46.038Z,53.5
2023-02-23T06:44:05.951Z,53.5
2023-02-23T06:50:29.001Z,56.8
2023-02-23T06:56:49.003Z,56.8
2023-02-23T07:03:11.946Z,55
2023-02-23T07:09:31.973Z,55
2023-02-23T07:15:55.002Z,55.2
2023-02-23T07:22:15.076Z,55.2
2023-02-23T07:28:37.941Z,51.1
2023-02-23T07:34:57.971Z,51.1
2023-02-23T07:41:21.291Z,45.2
2023-02-23T07:47:40.910Z,45.2
2023-02-23T07:54:03.965Z,51.6
2023-02-23T08:00:23.974Z,51.6
2023-02-23T08:06:46.944Z,45.2
2023-02-23T08:13:06.969Z,45.2
2023-02-23T08:19:29.915Z,47.4
2023-02-23T08:25:50.083Z,47.4
2023-02-23T08:32:13.082Z,52.5
2023-02-23T08:38:32.935Z,52.5
2023-02-23T08:44:56.005Z,46.7
2023-02-23T08:51:15.936Z,46.7
2023-02-23T08:57:38.948Z,32.8
2023-02-23T09:03:58.976Z,32.8
2023-02-23T09:10:21.959Z,31.7
2023-02-23T09:16:41.965Z,31.7
2023-02-23T09:23:04.974Z,30.6
2023-02-23T09:29:25.068Z,30.6
2023-02-23T09:35:47.955Z,39.7
2023-02-23T09:42:07.926Z,39.7
2023-02-23T09:58:37.665Z,56.1
2023-02-23T10:04:57.983Z,56.1
2023-02-23T10:11:21.169Z,30.8
2023-02-23T10:17:41.076Z,30.8
2023-02-23T10:24:03.926Z,32.4
2023-02-23T10:30:23.944Z,32.4
2023-02-23T10:36:46.964Z,31.3
2023-02-23T10:43:06.938Z,31.3
2023-02-23T10:49:30.279Z,49.7
2023-02-23T10:55:49.948Z,49.7
2023-02-23T11:02:12.985Z,43.8
2023-02-23T11:08:32.971Z,43.8
2023-02-23T11:14:55.955Z,34.7
2023-02-23T11:21:15.956Z,34.7
2023-02-23T11:27:38.933Z,31.6
2023-02-23T11:33:59.006Z,31.6
2023-02-23T11:40:21.991Z,29.9
2023-02-23T11:46:41.999Z,29.9
2023-02-23T11:53:05.015Z,27.9
2023-02-23T11:59:24.930Z,27.9
2023-02-23T12:05:48.000Z,47.7
2023-02-23T12:12:07.945Z,47.7
2023-02-23T12:18:31.099Z,23.8
2023-02-23T12:24:50.977Z,23.8
2023-02-23T12:31:14.033Z,21.3
2023-02-23T12:37:33.992Z,21.3
2023-02-23T12:43:57.003Z,26.6
2023-02-23T12:50:16.975Z,26.6
2023-02-23T12:56:40.118Z,18.7
2023-02-23T13:02:59.915Z,18.7
2023-02-23T13:09:22.978Z,30.9
2023-02-23T13:15:42.965Z,30.9
2023-02-23T13:22:05.925Z,17.4
2023-02-23T13:28:26.023Z,17.4
2023-02-23T13:34:48.925Z,34.5
2023-02-23T13:41:08.923Z,34.5
2023-02-23T13:47:32.076Z,27.1
2023-02-23T13:53:52.091Z,27.1
2023-02-23T14:00:14.989Z,35.1
2023-02-23T14:06:34.924Z,35.1
2023-02-23T14:12:57.941Z,25
2023-02-23T14:19:17.953Z,25
2023-02-23T14:25:40.927Z,41.9
2023-02-23T14:32:01.133Z,41.9
2023-02-23T14:38:23.969Z,23.3
2023-02-23T14:44:44.026Z,23.3
2023-02-23T14:51:16.037Z,25
2023-02-23T14:57:26.937Z,25
2023-02-23T15:03:50.070Z,49.3
2023-02-23T15:19:23.280Z,41.8
2023-02-23T15:25:41.950Z,41.8
2023-02-23T15:32:05.213Z,57.5
2023-02-23T15:38:42.194Z,57.5
2023-02-23T15:44:47.922Z,57.5
2023-02-23T15:51:08.016Z,57.5
2023-02-23T15:57:30.993Z,32.5
2023-02-23T16:03:50.913Z,32.5
2023-02-23T16:10:13.946Z,32.3
2023-02-23T16:16:33.983Z,32.3
2023-02-23T16:22:56.910Z,22.4
2023-02-23T16:29:16.984Z,22.4
2023-02-23T16:35:39.972Z,37.8
2023-02-23T16:41:59.973Z,37.8
2023-02-23T16:48:22.891Z,29.6
2023-02-23T16:54:42.986Z,29.6
2023-02-23T17:01:05.981Z,29.3
2023-02-23T17:07:25.937Z,29.3
2023-02-23T17:13:49.077Z,29.1
2023-02-23T17:20:08.936Z,29.1
2023-02-23T17:26:32.045Z,42.9
2023-02-23T17:32:52.051Z,42.9
2023-02-23T17:39:14.901Z,31.6
2023-02-23T17:45:34.990Z,31.6
2023-02-23T17:51:57.939Z,31
2023-02-23T17:58:18.008Z,31
2023-02-23T18:04:40.956Z,45.6
2023-02-23T18:11:01.012Z,45.6
2023-02-23T18:17:24.025Z,18.7
2023-02-23T18:23:43.969Z,18.7
2023-02-23T18:30:06.993Z,42.9
2023-02-23T18:36:26.973Z,42.9
2023-02-23T18:42:49.955Z,32.4
2023-02-23T18:49:10.002Z,32.4
2023-02-23T18:55:32.913Z,22.1
2023-02-23T19:01:52.939Z,22.1
2023-02-23T19:08:15.965Z,71.4
2023-02-23T19:14:48.653Z,71.4
2023-02-23T19:20:58.969Z,18.2
2023-02-23T19:27:18.950Z,18.2
2023-02-23T19:33:41.952Z,32.4
2023-02-23T19:40:03.464Z,32.4
2023-02-23T19:46:24.947Z,47.2
2023-02-23T19:52:45.042Z,47.2
2023-02-23T19:59:07.947Z,40.7
2023-02-23T20:05:28.011Z,40.7
2023-02-23T20:11:50.900Z,42.9
2023-02-23T20:18:10.964Z,42.9
2023-02-23T20:24:34.005Z,30.1
2023-02-23T20:40:05.845Z,35.7
2023-02-23T20:46:25.988Z,35.7
2023-02-23T20:52:48.898Z,76
2023-02-23T20:59:08.988Z,76
2023-02-23T21:05:31.891Z,76
2023-02-23T21:11:51.914Z,76
2023-02-23T21:18:15.052Z,14.1
2023-02-23T21:24:34.949Z,14.1
2023-02-23T21:30:58.070Z,21.3
2023-02-23T21:37:17.929Z,21.3
2023-02-23T21:43:40.895Z,23.5
2023-02-23T21:50:00.940Z,23.5
2023-02-23T21:56:23.941Z,27.1
2023-02-23T22:02:43.983Z,27.1
2023-02-23T22:09:06.942Z,41.2
2023-02-23T22:15:26.957Z,41.2
2023-02-23T22:21:49.980Z,21.2
2023-02-23T22:28:09.951Z,21.2
2023-02-23T22:34:32.986Z,45.2
2023-02-23T22:40:52.991Z,45.2
2023-02-23T22:47:15.955Z,13.6
2023-02-23T22:53:35.972Z,13.6
2023-02-23T22:59:58.930Z,24.2
2023-02-23T23:22:55.901Z,54.9
2023-02-23T23:29:15.963Z,54.9
2023-02-23T23:35:38.901Z,54.9
2023-02-23T23:41:59.047Z,54.9
2023-02-23T23:48:21.990Z,30.1
2023-02-23T23:54:42.031Z,30.1
